Time;durP1;ratioP1;P1;durP2;ratioP2;P2;SDS_P1;SDS_P2;PMS_P1;PMS_P2;Temp;Humidity;BMP_temperature;BMP_pressure;BME280_temperature;BME280_humidity;BME280_pressure;Samples;Min_cycle;Max_cycle;Signal;HPM_P1;HPM_P2
2023/04/08 00:01:51;;;;;;;24.98;22.38;;;;;;;10.19;56.66;99721.84;5113432;28;20030;-78
2023/04/08 00:04:18;;;;;;;25.63;22.27;;;;;;;10.80;56.98;99818.81;5114698;28;20104;-78
2023/04/08 00:06:44;;;;;;;24.77;22.00;;;;;;;10.75;57.67;99818.50;5114511;28;20091;-78
2023/04/08 00:09:09;;;;;;;24.80;22.10;;;;;;;10.28;57.92;99749.06;5113309;28;20024;-78
2023/04/08 00:11:36;;;;;;;25.63;22.50;;;;;;;10.48;57.70;99782.81;5113314;28;20019;-77
2023/04/08 00:14:03;;;;;;;24.73;22.13;;;;;;;10.62;57.63;99815.59;5114599;28;20023;-78
2023/04/08 00:16:28;;;;;;;25.02;22.13;;;;;;;9.99;58.07;99718.78;5114248;28;20024;-78
2023/04/08 00:18:53;;;;;;;23.00;20.52;;;;;;;10.16;58.33;99746.75;5114291;28;20480;-79
2023/04/08 00:21:20;;;;;;;23.23;20.73;;;;;;;10.53;57.89;99805.25;5114442;28;20019;-78
2023/04/08 00:23:46;;;;;;;27.23;22.27;;;;;;;10.23;58.35;99764.59;5114544;28;20119;-78
2023/04/08 00:26:11;;;;;;;23.52;20.98;;;;;;;10.58;58.10;99816.94;5114140;28;20563;-78
2023/04/08 00:28:37;;;;;;;24.42;21.65;;;;;;;10.38;58.51;99784.81;5114199;28;20462;-78
2023/04/08 00:31:03;;;;;;;26.02;22.33;;;;;;;10.56;58.52;99807.53;5114262;28;20111;-78
2023/04/08 00:33:28;;;;;;;25.02;21.33;;;;;;;9.74;58.32;99680.31;5114292;28;20095;-77
2023/04/08 00:35:54;;;;;;;26.30;21.80;;;;;;;10.14;58.91;99769.84;5112740;28;20514;-78
2023/04/08 00:38:19;;;;;;;28.30;22.80;;;;;;;9.71;58.86;99702.56;5113950;28;20020;-77
2023/04/08 00:40:45;;;;;;;27.63;23.48;;;;;;;9.63;59.54;99704.34;5114100;28;20031;-77
2023/04/08 00:43:11;;;;;;;25.88;22.40;;;;;;;10.00;59.47;99757.38;5113953;28;20028;-78
2023/04/08 00:45:36;;;;;;;28.85;22.92;;;;;;;10.36;59.77;99826.38;5113886;28;20027;-77
2023/04/08 00:48:04;;;;;;;31.80;24.25;;;;;;;10.33;59.62;99833.81;5113649;28;20016;-78
2023/04/08 00:50:30;;;;;;;32.38;25.25;;;;;;;9.75;60.85;99758.41;5114051;28;20027;-78
2023/04/08 00:52:55;;;;;;;28.30;24.05;;;;;;;9.88;60.36;99785.09;5113098;28;20476;-77
2023/04/08 00:55:21;;;;;;;27.98;23.10;;;;;;;9.73;60.56;99758.59;5113789;28;20031;-77
2023/04/08 00:57:47;;;;;;;29.95;23.50;;;;;;;9.70;60.65;99772.09;5113584;28;20020;-78
2023/04/08 01:00:13;;;;;;;28.63;23.63;;;;;;;10.08;60.96;99830.38;5113654;27;20028;-78
2023/04/08 01:02:49;;;;;;;31.48;25.48;;;;;;;10.05;61.46;99834.19;5113768;28;20020;-77
2023/04/08 01:05:27;;;;;;;31.42;25.08;;;;;;;9.94;61.64;99831.91;5112315;28;20070;-79
2023/04/08 01:07:53;;;;;;;31.90;25.38;;;;;;;9.59;61.52;99771.59;5113671;28;20023;-79
2023/04/08 01:10:30;;;;;;;35.67;27.65;;;;;;;9.96;61.71;99844.91;5113447;28;20435;-77
2023/04/08 01:12:58;;;;;;;30.67;24.60;;;;;;;9.94;61.83;99841.63;5112291;28;20023;-77
2023/04/08 01:15:25;;;;;;;33.13;25.08;;;;;;;9.93;62.30;99839.97;5113330;28;20111;-79
2023/04/08 01:17:53;;;;;;;33.88;27.48;;;;;;;9.66;62.07;99806.84;5113204;27;20488;-78
2023/04/08 01:20:21;;;;;;;31.63;23.63;;;;;;;9.30;61.81;99762.38;5113261;28;20019;-78
2023/04/08 01:23:15;;;;;;;32.90;25.08;;;;;;;9.73;62.77;99832.41;5113217;28;20488;-78
2023/04/08 01:25:48;;;;;;;33.90;25.25;;;;;;;9.68;62.61;99832.09;5111786;28;20039;-78
2023/04/08 01:28:16;;;;;;;30.90;25.48;;;;;;;9.74;62.62;99849.06;5111851;28;20382;-79
2023/04/08 01:30:43;;;;;;;32.95;26.33;;;;;;;9.73;62.70;99848.22;5113162;28;20022;-78
2023/04/08 01:33:14;;;;;;;32.85;24.58;;;;;;;9.82;62.79;99851.69;5113146;28;20077;-77
2023/04/08 01:35:40;;;;;;;28.63;22.85;;;;;;;9.40;62.86;99788.56;5112800;28;20468;-78
2023/04/08 01:38:08;;;;;;;34.05;24.17;;;;;;;9.27;62.56;99754.78;5112694;28;20557;-78
2023/04/08 01:40:36;;;;;;;28.15;22.50;;;;;;;8.90;62.85;99719.19;5112661;28;20024;-78
2023/04/08 01:43:03;;;;;;;27.25;22.45;;;;;;;9.55;63.09;99826.44;5112751;28;20015;-78
2023/04/08 01:45:30;;;;;;;31.27;24.27;;;;;;;9.61;63.28;99838.97;5112518;28;20028;-77
2023/04/08 01:47:57;;;;;;;30.00;23.58;;;;;;;9.62;63.57;99855.59;5112463;28;20492;-77
2023/04/08 01:50:24;;;;;;;30.40;24.35;;;;;;;9.13;63.19;99766.81;5111354;28;20023;-78
2023/04/08 01:52:52;;;;;;;31.90;24.85;;;;;;;9.32;63.30;99809.63;5112953;28;20511;-78
2023/04/08 01:55:19;;;;;;;31.92;24.25;;;;;;;9.00;63.29;99741.94;5112512;28;20094;-77
2023/04/08 01:57:49;;;;;;;32.80;25.10;;;;;;;9.39;63.42;99834.34;5112491;28;20023;-77
2023/04/08 02:00:18;;;;;;;34.50;25.33;;;;;;;9.19;63.22;99775.88;5112589;28;20112;-78
2023/04/08 02:02:46;;;;;;;30.48;24.55;;;;;;;9.70;63.42;99863.56;5111161;28;20031;-78
2023/04/08 02:05:12;;;;;;;32.58;26.08;;;;;;;9.32;63.28;99817.53;5111657;28;20029;-77
2023/04/08 02:07:37;;;;;;;37.42;26.00;;;;;;;9.50;63.44;99831.38;5112542;28;20016;-77
2023/04/08 02:10:03;;;;;;;31.65;25.38;;;;;;;9.42;63.52;99824.31;5112641;27;20023;-78
2023/04/08 02:12:29;;;;;;;34.42;25.00;;;;;;;9.17;63.17;99775.22;5112344;28;20416;-77
2023/04/08 02:14:56;;;;;;;31.23;26.48;;;;;;;9.74;63.28;99862.22;5112353;28;20016;-77
2023/04/08 02:17:40;;;;;;;35.58;26.95;;;;;;;9.71;64.06;99866.03;5112609;28;20045;-77
2023/04/08 02:20:09;;;;;;;32.03;25.48;;;;;;;9.39;63.33;99811.44;5111041;28;20023;-77
2023/04/08 02:22:47;;;;;;;31.17;25.08;;;;;;;9.67;63.63;99869.97;5112434;28;20024;-77
2023/04/08 02:25:14;;;;;;;33.88;25.95;;;;;;;9.65;63.70;99865.81;5112383;28;20086;-77
2023/04/08 02:27:42;;;;;;;32.78;25.73;;;;;;;9.18;63.71;99780.31;5112535;28;20480;-77
2023/04/08 02:30:10;;;;;;;32.50;25.58;;;;;;;9.27;63.64;99809.31;5114710;28;20019;-78
2023/04/08 02:32:37;;;;;;;30.25;24.33;;;;;;;9.56;63.38;99839.47;5114731;28;20023;-77
2023/04/08 02:35:04;;;;;;;30.88;24.17;;;;;;;9.32;63.06;99792.00;5111884;28;20484;-78
2023/04/08 02:37:30;;;;;;;32.65;25.83;;;;;;;9.70;63.52;99868.81;5111754;28;20015;-77
2023/04/08 02:39:56;;;;;;;29.50;23.88;;;;;;;9.68;64.19;99887.44;5111746;28;20515;-77
2023/04/08 02:42:21;;;;;;;36.53;26.95;;;;;;;9.71;63.85;99886.28;5111841;28;20026;-78
2023/04/08 02:44:47;;;;;;;37.45;27.70;;;;;;;9.47;63.89;99837.00;5111960;28;20023;-77
2023/04/08 02:47:12;;;;;;;32.92;25.60;;;;;;;9.13;64.05;99787.88;5111735;28;20059;-79
2023/04/08 02:49:38;;;;;;;35.35;26.58;;;;;;;9.61;63.79;99872.41;5111747;28;20102;-77
2023/04/08 02:52:03;;;;;;;34.53;26.58;;;;;;;9.48;63.79;99850.00;5111675;28;20121;-78
2023/04/08 02:54:29;;;;;;;43.70;29.23;;;;;;;9.15;64.25;99814.06;5110478;28;20012;-77
2023/04/08 02:56:54;;;;;;;38.70;27.67;;;;;;;9.60;64.33;99887.41;5111782;28;20113;-77
2023/04/08 02:59:20;;;;;;;39.40;29.10;;;;;;;9.60;64.28;99876.88;5112004;28;20020;-78
2023/04/08 03:01:45;;;;;;;40.28;28.98;;;;;;;9.61;64.29;99875.06;5111455;28;20027;-78
2023/04/08 03:04:11;;;;;;;39.45;29.38;;;;;;;9.05;64.41;99795.78;5111467;28;20020;-78
2023/04/08 03:06:36;;;;;;;39.80;28.35;;;;;;;9.08;64.15;99795.44;5110273;28;20024;-77
2023/04/08 03:09:01;;;;;;;36.50;27.05;;;;;;;9.21;63.94;99816.03;5111630;28;20027;-78
2023/04/08 03:11:27;;;;;;;38.17;27.20;;;;;;;9.14;63.97;99813.25;5111643;28;20105;-77
2023/04/08 03:13:52;;;;;;;40.22;27.65;;;;;;;9.65;63.91;99889.56;5110254;28;20019;-77
2023/04/08 03:16:18;;;;;;;40.45;28.52;;;;;;;9.67;63.94;99898.16;5113906;28;20023;-77
2023/04/08 03:18:44;;;;;;;37.70;27.70;;;;;;;9.67;64.04;99893.72;5115691;28;20023;-78
2023/04/08 03:21:09;;;;;;;38.80;28.77;;;;;;;9.51;64.04;99873.41;5115714;28;20045;-77
2023/04/08 03:23:35;;;;;;;40.45;27.63;;;;;;;9.28;64.23;99850.47;5115619;28;20401;-78
2023/04/08 03:26:00;;;;;;;38.65;28.02;;;;;;;9.64;64.22;99888.72;5115286;27;20405;-77
2023/04/08 03:28:26;;;;;;;40.00;28.30;;;;;;;9.63;63.99;99892.34;5115314;28;20028;-77
2023/04/08 03:30:51;;;;;;;37.85;27.48;;;;;;;8.97;63.85;99792.28;5115388;28;20023;-79
2023/04/08 03:33:16;;;;;;;35.50;25.60;;;;;;;9.53;63.88;99884.59;5115206;28;20059;-77
2023/04/08 03:35:42;;;;;;;34.95;25.90;;;;;;;9.45;64.25;99889.88;5115337;28;20058;-78
2023/04/08 03:38:07;;;;;;;35.40;26.00;;;;;;;9.21;63.97;99843.22;5115207;28;20095;-77
2023/04/08 03:40:33;;;;;;;36.25;26.15;;;;;;;9.43;63.88;99875.19;5115134;28;20032;-78
2023/04/08 03:42:58;;;;;;;29.85;23.77;;;;;;;9.60;63.66;99907.66;5115227;28;20030;-77
2023/04/08 03:45:23;;;;;;;33.03;25.05;;;;;;;9.32;63.75;99841.25;5115064;28;20118;-78
2023/04/08 03:47:49;;;;;;;33.20;23.95;;;;;;;8.64;63.58;99755.34;5114922;28;20011;-77
2023/04/08 03:50:14;;;;;;;33.80;24.27;;;;;;;9.48;63.63;99879.00;5114946;28;20020;-78
2023/04/08 03:52:40;;;;;;;33.45;24.88;;;;;;;9.33;63.47;99877.16;5113476;28;20017;-78
2023/04/08 03:55:05;;;;;;;32.10;25.10;;;;;;;9.17;63.65;99841.88;5114792;28;20043;-77
2023/04/08 03:57:31;;;;;;;43.50;28.35;;;;;;;9.60;63.69;99905.03;5114775;28;20400;-78
2023/04/08 03:59:56;;;;;;;45.88;30.83;;;;;;;9.59;63.77;99909.47;5114889;28;20099;-77
2023/04/08 04:02:22;;;;;;;45.92;31.73;;;;;;;9.43;64.06;99883.09;5113580;28;20027;-78
2023/04/08 04:04:47;;;;;;;37.78;28.05;;;;;;;9.49;64.25;99893.00;5114692;28;20016;-77
2023/04/08 04:07:12;;;;;;;39.67;27.52;;;;;;;9.01;64.14;99809.44;5113155;28;20630;-78
2023/04/08 04:09:38;;;;;;;37.45;27.08;;;;;;;9.29;64.14;99870.56;5114513;28;20015;-77
2023/04/08 04:12:03;;;;;;;33.30;24.73;;;;;;;9.47;63.73;99885.25;5114737;28;20023;-78
2023/04/08 04:14:29;;;;;;;32.05;23.52;;;;;;;9.17;63.59;99862.13;5114645;28;20024;-77
2023/04/08 04:16:54;;;;;;;32.78;24.15;;;;;;;9.65;63.48;99908.00;5114593;28;20026;-77
2023/04/08 04:19:20;;;;;;;32.15;24.15;;;;;;;9.31;63.35;99871.22;5113132;28;20412;-77
2023/04/08 04:21:45;;;;;;;34.78;24.35;;;;;;;9.25;63.81;99856.88;5113042;28;20045;-77
2023/04/08 04:24:12;;;;;;;30.77;23.10;;;;;;;9.01;63.72;99815.50;5114309;28;20035;-77
2023/04/08 04:26:39;;;;;;;35.08;25.33;;;;;;;9.53;63.30;99894.31;5113624;28;20039;-77
2023/04/08 04:29:05;;;;;;;35.08;25.70;;;;;;;8.97;63.73;99808.94;5113948;28;20523;-77
2023/04/08 04:31:30;;;;;;;39.35;27.67;;;;;;;9.48;63.94;99899.25;5114245;28;20019;-77
2023/04/08 04:33:55;;;;;;;37.83;26.67;;;;;;;9.62;63.78;99934.69;5114326;28;20028;-76
2023/04/08 04:36:21;;;;;;;41.92;29.52;;;;;;;9.60;63.75;99913.78;5113954;28;20106;-77
2023/04/08 04:38:46;;;;;;;36.55;26.73;;;;;;;9.68;63.52;99929.63;5113869;28;20027;-77
2023/04/08 04:41:12;;;;;;;38.45;27.55;;;;;;;9.72;63.56;99936.22;5112840;28;20031;-76
2023/04/08 04:43:37;;;;;;;36.92;27.80;;;;;;;9.77;63.24;99935.75;5114137;28;20054;-76
2023/04/08 04:46:05;;;;;;;38.22;26.80;;;;;;;9.28;63.00;99869.72;5113509;28;20388;-77
2023/04/08 04:48:34;;;;;;;37.50;27.65;;;;;;;9.65;63.04;99926.47;5113764;28;20020;-77
2023/04/08 04:51:02;;;;;;;40.00;28.42;;;;;;;9.78;63.04;99940.03;5114110;28;20050;-77
2023/04/08 04:53:27;;;;;;;38.95;27.80;;;;;;;9.07;62.46;99829.84;5113845;28;20406;-76
2023/04/08 04:55:54;;;;;;;36.78;27.80;;;;;;;9.84;62.66;99952.56;5112591;28;20032;-78
2023/04/08 04:58:19;;;;;;;35.70;27.67;;;;;;;9.85;62.60;99936.56;5113642;28;20020;-78
2023/04/08 05:00:45;;;;;;;35.67;28.50;;;;;;;9.33;62.41;99854.25;5113656;28;20461;-78
2023/04/08 05:03:11;;;;;;;36.67;27.92;;;;;;;9.97;61.90;99944.97;5113805;28;20016;-79
2023/04/08 05:05:37;;;;;;;36.65;26.50;;;;;;;9.42;61.88;99853.28;5113496;27;20056;-78
2023/04/08 05:08:02;;;;;;;34.10;25.63;;;;;;;9.96;61.43;99932.78;5112170;28;20019;-79
2023/04/08 05:10:28;;;;;;;35.35;25.67;;;;;;;9.46;61.28;99851.97;5113441;28;20024;-78
2023/04/08 05:12:53;;;;;;;37.05;27.33;;;;;;;10.02;61.75;99944.50;5113442;28;20519;-79
2023/04/08 05:15:18;;;;;;;31.95;24.95;;;;;;;9.66;61.46;99884.16;5113311;27;20016;-78
2023/04/08 05:17:44;;;;;;;33.15;25.63;;;;;;;10.06;61.38;99944.00;5113193;28;20023;-79
2023/04/08 05:20:10;;;;;;;31.88;26.45;;;;;;;9.62;60.93;99864.34;5113122;28;20484;-77
2023/04/08 05:22:35;;;;;;;34.55;26.20;;;;;;;10.14;61.05;99928.16;5113082;28;20095;-78
2023/04/08 05:25:01;;;;;;;30.73;24.17;;;;;;;9.76;61.20;99876.06;5113227;28;20047;-78
2023/04/08 05:27:26;;;;;;;30.27;23.40;;;;;;;9.86;61.04;99882.00;5112924;28;20031;-78
2023/04/08 05:29:52;;;;;;;31.00;24.60;;;;;;;9.88;60.93;99886.13;5113149;28;20576;-78
2023/04/08 05:32:17;;;;;;;28.58;24.00;;;;;;;9.90;61.35;99901.78;5113194;28;20048;-78
2023/04/08 05:34:43;;;;;;;34.72;25.52;;;;;;;10.08;61.29;99934.09;5111887;28;20087;-78
2023/04/08 05:37:08;;;;;;;30.15;25.90;;;;;;;9.61;61.14;99864.50;5112933;27;20519;-77
2023/04/08 05:39:34;;;;;;;31.85;25.05;;;;;;;10.10;61.15;99931.28;5112992;28;20030;-78
2023/04/08 05:41:59;;;;;;;32.55;25.80;;;;;;;10.11;61.30;99938.22;5113294;28;20390;-78
2023/04/08 05:44:25;;;;;;;34.65;26.35;;;;;;;9.38;61.04;99806.34;5112883;28;20015;-78
2023/04/08 05:46:50;;;;;;;30.95;24.80;;;;;;;9.93;61.37;99898.81;5112772;28;20529;-78
2023/04/08 05:49:16;;;;;;;33.60;27.13;;;;;;;9.94;61.37;99897.84;5111438;28;20826;-78
2023/04/08 05:51:42;;;;;;;35.63;27.48;;;;;;;10.31;61.64;99952.75;5111435;28;20020;-78
2023/04/08 05:54:07;;;;;;;33.60;26.05;;;;;;;10.36;61.33;99953.09;5112564;28;20023;-78
2023/04/08 05:56:33;;;;;;;32.35;26.00;;;;;;;9.97;60.89;99894.03;5112725;28;20222;-78
2023/04/08 05:58:59;;;;;;;35.92;28.25;;;;;;;10.35;61.33;99940.88;5112758;28;20099;-77
2023/04/08 06:01:25;;;;;;;34.20;27.20;;;;;;;9.92;61.27;99870.81;5112827;28;20461;-78
2023/04/08 06:03:51;;;;;;;33.92;26.73;;;;;;;10.37;60.97;99923.06;5112709;28;20034;-77
2023/04/08 06:06:17;;;;;;;39.63;30.08;;;;;;;10.60;60.88;99964.63;5112510;28;20541;-77
2023/04/08 06:08:42;;;;;;;40.08;29.83;;;;;;;10.60;61.02;99965.44;5112301;28;20024;-77
2023/04/08 06:11:08;;;;;;;38.40;29.50;;;;;;;10.61;61.14;99964.47;5112557;28;20023;-77
2023/04/08 06:13:33;;;;;;;37.80;29.33;;;;;;;10.41;61.15;99918.31;5112338;28;20076;-78
2023/04/08 06:16:09;;;;;;;36.53;29.63;;;;;;;10.78;60.77;99957.31;5110798;28;20020;-78
2023/04/08 06:18:35;;;;;;;39.17;29.73;;;;;;;10.51;60.88;99913.66;5111982;28;20477;-78
2023/04/08 06:21:00;;;;;;;39.45;29.58;;;;;;;10.75;60.37;99947.94;5110708;28;20020;-78
2023/04/08 06:23:25;;;;;;;37.80;29.65;;;;;;;10.67;60.66;99947.94;5111872;28;20102;-79
2023/04/08 06:25:52;;;;;;;40.50;29.42;;;;;;;10.82;60.62;99975.31;5111910;28;20055;-78
2023/04/08 06:28:18;;;;;;;32.65;26.35;;;;;;;10.47;60.50;99921.09;5110600;28;20470;-77
2023/04/08 06:30:43;;;;;;;30.55;25.40;;;;;;;10.89;60.25;99956.13;5112069;28;20024;-78
2023/04/08 06:33:09;;;;;;;33.38;25.77;;;;;;;10.93;60.79;99946.88;5111975;28;20077;-77
2023/04/08 06:35:36;;;;;;;32.58;26.52;;;;;;;10.23;60.63;99836.66;5111925;28;20069;-79
2023/04/08 06:38:01;;;;;;;34.58;27.67;;;;;;;10.33;60.31;99849.66;5110477;28;20015;-78
2023/04/08 06:40:27;;;;;;;34.00;27.42;;;;;;;11.08;60.03;99961.84;5111737;28;20569;-78
2023/04/08 06:42:53;;;;;;;37.67;29.23;;;;;;;11.12;60.50;99964.97;5111719;28;20054;-77
2023/04/08 06:45:18;;;;;;;32.03;27.77;;;;;;;10.81;60.81;99901.53;5111774;28;20020;-78
2023/04/08 06:47:44;;;;;;;34.35;28.10;;;;;;;10.91;60.14;99903.97;5111757;28;20500;-79
2023/04/08 06:50:09;;;;;;;33.35;27.63;;;;;;;11.34;60.13;99966.06;5111122;28;20099;-77
2023/04/08 06:52:35;;;;;;;32.90;26.95;;;;;;;11.36;60.07;99954.31;5111609;28;20075;-79
2023/04/08 06:55:00;;;;;;;35.80;29.88;;;;;;;11.48;59.98;99978.56;5110334;28;20023;-78
2023/04/08 06:57:26;;;;;;;34.00;28.35;;;;;;;11.56;59.38;99969.75;5110520;28;20023;-78
2023/04/08 06:59:52;;;;;;;34.35;28.33;;;;;;;11.54;59.43;99946.13;5111623;28;20055;-78
2023/04/08 07:02:18;;;;;;;31.80;26.70;;;;;;;11.06;58.90;99858.13;5111616;28;20023;-77
2023/04/08 07:04:43;;;;;;;32.78;26.77;;;;;;;11.64;58.84;99933.50;5111794;28;20028;-79
2023/04/08 07:07:09;;;;;;;30.40;27.00;;;;;;;11.81;58.81;99957.22;5111423;28;20527;-78
2023/04/08 07:09:35;;;;;;;32.90;27.60;;;;;;;11.94;58.58;99968.91;5111534;28;20507;-80
2023/04/08 07:12:03;;;;;;;25.23;22.55;;;;;;;12.00;58.76;99959.44;5111717;28;20016;-77
2023/04/08 07:14:28;;;;;;;23.20;20.25;;;;;;;12.18;57.93;99986.44;5111770;28;20020;-76
2023/04/08 07:16:55;;;;;;;25.42;21.02;;;;;;;11.77;57.93;99912.59;5110468;28;20085;-77
2023/04/08 07:19:21;;;;;;;22.15;19.38;;;;;;;12.27;57.69;99987.19;5111344;28;20102;-79
2023/04/08 07:21:47;;;;;;;22.25;19.95;;;;;;;12.31;57.69;99980.53;5111586;28;20022;-76
2023/04/08 07:24:12;;;;;;;22.10;19.02;;;;;;;12.41;56.91;99986.41;5110229;28;20023;-78
2023/04/08 07:26:38;;;;;;;22.58;20.08;;;;;;;12.48;57.14;99987.31;5111117;28;20044;-78
2023/04/08 07:29:03;;;;;;;24.77;19.55;;;;;;;12.09;56.69;99916.84;5110051;28;20084;-78
2023/04/08 07:31:28;;;;;;;22.58;20.02;;;;;;;12.69;56.72;99981.38;5111344;28;20102;-79
2023/04/08 07:33:54;;;;;;;21.15;18.83;;;;;;;12.75;56.03;99970.03;5111446;28;20407;-78
2023/04/08 07:36:19;;;;;;;20.00;17.90;;;;;;;12.36;56.16;99925.22;5111375;28;20411;-78
2023/04/08 07:38:45;;;;;;;20.30;18.20;;;;;;;12.75;55.82;99971.88;5111069;28;20024;-78
2023/04/08 07:41:10;;;;;;;20.63;17.80;;;;;;;12.43;56.04;99907.59;5109801;28;20023;-78
2023/04/08 07:43:36;;;;;;;23.65;20.50;;;;;;;11.48;55.64;99758.25;5109877;28;20027;-77
2023/04/08 07:46:03;;;;;;;23.48;19.95;;;;;;;13.12;55.41;99978.91;5111222;28;20039;-79
2023/04/08 07:48:30;;;;;;;20.40;18.20;;;;;;;13.17;55.39;99979.22;5111156;28;20023;-78
2023/04/08 07:50:55;;;;;;;20.65;18.35;;;;;;;12.82;54.86;99920.59;5111203;28;20080;-78
2023/04/08 07:53:23;;;;;;;23.10;18.98;;;;;;;13.23;55.23;99973.16;5111148;28;20481;-78
2023/04/08 07:55:48;;;;;;;21.75;19.45;;;;;;;12.95;54.64;99899.59;5110968;28;20024;-78
2023/04/08 07:58:13;;;;;;;20.80;18.17;;;;;;;13.26;54.40;99928.53;5111196;28;20023;-79
2023/04/08 08:00:39;;;;;;;20.38;17.35;;;;;;;13.26;53.90;99923.25;5111071;28;20585;-78
2023/04/08 08:03:05;;;;;;;20.10;18.00;;;;;;;13.39;53.64;99925.25;5112614;28;20011;-78
2023/04/08 08:05:30;;;;;;;20.90;18.63;;;;;;;13.51;53.29;99944.16;5114690;28;20107;-78
2023/04/08 08:07:56;;;;;;;21.60;19.23;;;;;;;13.03;53.27;99880.94;5114666;28;20020;-78
2023/04/08 08:10:21;;;;;;;21.75;18.85;;;;;;;13.20;53.78;99918.69;5114776;28;20194;-78
2023/04/08 08:12:46;;;;;;;20.85;17.98;;;;;;;13.30;53.79;99936.94;5114505;28;20571;-79
2023/04/08 08:15:12;;;;;;;20.17;18.08;;;;;;;13.73;53.39;99953.78;5114419;28;20551;-79
2023/04/08 08:17:37;;;;;;;19.05;17.05;;;;;;;13.74;52.78;99925.41;5114611;28;20027;-78
2023/04/08 08:20:03;;;;;;;19.90;17.90;;;;;;;13.90;52.10;99941.91;5114500;28;20415;-79
2023/04/08 08:22:29;;;;;;;19.02;17.13;;;;;;;13.53;51.93;99908.47;5114467;28;20026;-78
2023/04/08 08:24:58;;;;;;;18.65;16.75;;;;;;;13.46;51.87;99881.06;5114342;28;20043;-79
2023/04/08 08:27:23;;;;;;;17.83;16.13;;;;;;;13.90;51.66;99923.31;5114204;28;20055;-79
2023/04/08 08:29:49;;;;;;;14.90;13.40;;;;;;;13.84;51.06;99899.38;5114165;27;20055;-78
2023/04/08 08:32:14;;;;;;;14.18;12.77;;;;;;;14.26;51.19;99943.69;5114188;28;20027;-79
2023/04/08 08:34:40;;;;;;;13.93;12.63;;;;;;;13.87;50.49;99864.50;5114037;28;20027;-78
2023/04/08 08:37:05;;;;;;;14.05;12.75;;;;;;;14.30;50.25;99907.75;5114524;28;20019;-79
2023/04/08 08:39:31;;;;;;;12.77;11.55;;;;;;;14.77;49.65;99932.81;5114243;28;20023;-78
2023/04/08 08:41:56;;;;;;;13.30;12.00;;;;;;;14.77;49.33;99938.16;5114295;28;20023;-78
2023/04/08 08:44:22;;;;;;;14.50;12.85;;;;;;;14.40;49.53;99886.16;5113024;28;20027;-79
2023/04/08 08:46:48;;;;;;;12.98;11.77;;;;;;;14.23;49.50;99867.03;5113831;28;20049;-78
2023/04/08 08:49:13;;;;;;;13.75;12.35;;;;;;;13.82;49.62;99816.47;5112676;28;20032;-79
2023/04/08 08:51:40;;;;;;;13.65;12.25;;;;;;;14.62;49.52;99939.06;5113752;28;20027;-78
2023/04/08 08:54:05;;;;;;;12.57;11.18;;;;;;;14.53;48.54;99876.47;5113623;28;20419;-77
2023/04/08 08:56:32;;;;;;;14.43;13.02;;;;;;;14.76;48.27;99901.94;5113865;28;20023;-78
2023/04/08 08:58:58;;;;;;;14.52;12.27;;;;;;;15.01;48.13;99931.56;5113817;28;20024;-78
2023/04/08 09:01:30;;;;;;;12.80;11.50;;;;;;;15.22;48.16;99926.94;5113833;28;20556;-79
2023/04/08 09:04:15;;;;;;;11.93;10.82;;;;;;;15.33;47.41;99933.53;5113545;28;20031;-78
2023/04/08 09:06:41;;;;;;;12.90;11.73;;;;;;;15.10;47.46;99893.97;5113779;28;20023;-78
2023/04/08 09:09:10;;;;;;;14.23;11.80;;;;;;;15.56;47.52;99935.84;5113485;28;20204;-78
2023/04/08 09:11:40;;;;;;;14.85;12.80;;;;;;;15.90;47.03;99916.31;5113446;28;20423;-79
2023/04/08 09:14:21;;;;;;;14.23;12.35;;;;;;;16.46;46.16;99930.06;5112868;28;20031;-78
2023/04/08 09:16:47;;;;;;;14.23;12.73;;;;;;;16.41;45.67;99873.09;5113281;28;20065;-78
2023/04/08 09:19:12;;;;;;;13.77;12.40;;;;;;;17.07;44.58;99908.41;5113171;28;20110;-78
2023/04/08 09:21:40;;;;;;;12.55;11.45;;;;;;;17.30;44.09;99912.44;5111784;28;20089;-77
2023/04/08 09:24:06;;;;;;;13.25;11.85;;;;;;;17.67;43.46;99933.03;5113065;28;20031;-78
2023/04/08 09:26:32;;;;;;;12.45;11.25;;;;;;;17.72;43.39;99935.88;5112986;28;20071;-78
2023/04/08 09:29:15;;;;;;;12.95;11.63;;;;;;;17.37;43.01;99857.19;5112875;28;20051;-78
2023/04/08 09:31:41;;;;;;;13.70;12.40;;;;;;;17.71;42.54;99859.44;5113180;28;20027;-78
2023/04/08 09:34:15;;;;;;;13.50;12.20;;;;;;;18.29;42.08;99919.84;5113354;28;20034;-77
2023/04/08 09:36:41;;;;;;;13.90;12.50;;;;;;;18.42;41.57;99885.78;5111604;28;20453;-78
2023/04/08 09:39:06;;;;;;;14.27;12.77;;;;;;;18.90;41.24;99922.59;5112827;28;20020;-77
2023/04/08 09:41:36;;;;;;;12.75;11.60;;;;;;;18.90;40.40;99911.91;5113220;28;20023;-77
2023/04/08 09:44:04;;;;;;;14.07;12.65;;;;;;;19.04;40.20;99923.25;5111962;28;20032;-78
2023/04/08 09:46:32;;;;;;;12.10;10.93;;;;;;;19.07;39.76;99930.03;5111730;28;20050;-76
2023/04/08 09:49:09;;;;;;;11.90;10.70;;;;;;;18.86;39.54;99910.69;5113004;28;20118;-76
2023/04/08 09:51:59;;;;;;;11.77;10.57;;;;;;;18.41;39.62;99869.97;5111301;28;20031;-79
2023/04/08 09:54:49;;;;;;;12.15;10.95;;;;;;;18.53;39.20;99859.38;5111170;27;20108;-78
2023/04/08 09:57:42;;;;;;;12.38;11.18;;;;;;;18.74;38.66;99915.16;5112627;28;20043;-78
2023/04/08 10:00:16;;;;;;;16.08;14.35;;;;;;;18.62;39.16;99917.75;5112504;28;20028;-79
2023/04/08 10:02:59;;;;;;;11.80;10.60;;;;;;;19.02;38.31;99914.63;5112255;28;20085;-78
2023/04/08 10:05:26;;;;;;;13.10;11.80;;;;;;;19.05;37.36;99871.38;5110862;28;20110;-79
2023/04/08 10:07:52;;;;;;;13.50;12.13;;;;;;;19.10;37.59;99908.16;5112010;28;20110;-78
2023/04/08 10:10:18;;;;;;;10.02;9.00;;;;;;;18.55;37.81;99855.44;5110955;28;20106;-78
2023/04/08 10:12:44;;;;;;;10.25;9.25;;;;;;;18.76;36.42;99890.84;5112320;27;20031;-79
2023/04/08 10:15:29;;;;;;;10.98;9.95;;;;;;;18.33;37.13;99911.19;5112199;28;20024;-78
2023/04/08 10:18:19;;;;;;;12.27;10.45;;;;;;;17.92;37.55;99908.22;5110592;28;20023;-78
2023/04/08 10:20:46;;;;;;;8.48;7.68;;;;;;;17.09;37.74;99772.13;5112345;28;20024;-78
2023/04/08 10:23:13;;;;;;;13.07;11.73;;;;;;;18.29;37.13;99898.47;5112184;28;20038;-77
2023/04/08 10:25:40;;;;;;;9.55;8.70;;;;;;;18.63;36.83;99889.16;5109941;28;20054;-78
2023/04/08 10:28:16;;;;;;;8.88;8.07;;;;;;;18.89;36.33;99894.19;5111956;28;20023;-77
2023/04/08 10:30:49;;;;;;;9.60;8.70;;;;;;;18.96;36.67;99891.44;5111843;28;20027;-78
2023/04/08 10:33:33;;;;;;;9.73;8.82;;;;;;;18.69;35.98;99827.56;5111563;28;20488;-76
2023/04/08 10:36:13;;;;;;;15.75;14.15;;;;;;;18.53;36.55;99814.72;5112131;28;20459;-78
2023/04/08 10:38:41;;;;;;;10.25;9.20;;;;;;;18.71;36.08;99813.97;5111918;28;20038;-78
2023/04/08 10:41:07;;;;;;;8.90;8.10;;;;;;;19.06;35.70;99827.50;5110549;28;20032;-78
2023/04/08 10:43:33;;;;;;;8.65;7.80;;;;;;;19.42;35.25;99872.13;5110418;28;20408;-79
2023/04/08 10:45:59;;;;;;;11.00;9.77;;;;;;;19.23;34.67;99876.69;5111881;28;20027;-78
2023/04/08 10:48:25;;;;;;;7.45;6.75;;;;;;;19.00;34.69;99871.22;5111695;28;20435;-79
2023/04/08 10:51:03;;;;;;;8.70;7.90;;;;;;;18.83;34.36;99865.66;5110388;28;20484;-78
2023/04/08 10:53:34;;;;;;;9.63;8.73;;;;;;;18.80;35.32;99882.16;5110262;28;20031;-78
2023/04/08 10:56:07;;;;;;;8.73;7.87;;;;;;;18.67;34.89;99863.59;5111720;28;20036;-77
2023/04/08 10:58:34;;;;;;;8.05;6.80;;;;;;;18.58;35.01;99830.09;5110173;28;20408;-79
2023/04/08 11:01:04;;;;;;;8.40;7.57;;;;;;;18.90;34.89;99828.94;5111533;28;20103;-78
2023/04/08 11:03:32;;;;;;;7.93;7.13;;;;;;;18.69;34.30;99787.44;5111585;28;20124;-78
2023/04/08 11:05:59;;;;;;;8.13;7.30;;;;;;;18.54;34.44;99794.97;5111648;28;20023;-78
2023/04/08 11:08:28;;;;;;;10.45;8.48;;;;;;;18.68;34.71;99843.81;5111201;28;20027;-78
2023/04/08 11:10:54;;;;;;;11.25;10.07;;;;;;;18.63;35.00;99843.69;5111402;28;20039;-79
2023/04/08 11:13:22;;;;;;;9.63;8.68;;;;;;;18.55;35.24;99838.56;5111137;28;20039;-78
2023/04/08 11:15:49;;;;;;;8.43;7.72;;;;;;;18.07;35.40;99775.13;5111395;28;20102;-78
2023/04/08 11:18:15;;;;;;;8.75;7.95;;;;;;;18.12;35.53;99777.13;5111288;28;20507;-78
2023/04/08 11:20:43;;;;;;;8.57;7.68;;;;;;;19.14;35.00;99831.72;5111417;28;20027;-78
2023/04/08 11:23:16;;;;;;;8.93;8.13;;;;;;;19.57;34.26;99788.72;5111478;28;20028;-79